Barboursville, VA (22923)

11:25 AM EST on January 22, 2017 (GMT -0500)
The Vineyards | | Change Station

Elev 561 ft 38.19 °N, 78.29 °W | Updated 0 second ago

Overcast
Overcast
50.2 °F
Feels Like 50.2 °F
N
0.0
Wind Variable Wind from WSW
Gusts 1.0 mph

Today
High -- | Low -- °F
--% Chance of Precip.
Yesterday
High -- | Low -- °F
Precip. -- in
Pressure 29.68 in
Visibility 4.0 miles
Clouds Mostly Cloudy 400 ft
Overcast 1600 ft
Dew Point 50 °F
Humidity 99%
Rainfall 0.00 in
Snow Depth Not available.
7:24 AM 5:25 PM
Waning Crescent, 25% visible
SPECI KCHO 221600Z 00000KT 4SM BR BKN004 OVC016 11/09 A2968 RMK AO2 T01060094
Pressure 29.68 in
Visibility 4.0 miles
Clouds Mostly Cloudy 400 ft
Overcast 1600 ft
Dew Point 50 °F
Humidity 99%
Rainfall 0.00 in
Snow Depth Not available.
7:24 AM 5:25 PM
Waning Crescent, 25% visible
SPECI KCHO 221600Z 00000KT 4SM BR BKN004 OVC016 11/09 A2968 RMK AO2 T01060094

Get Your Daily Forecast Email!

Thanks for signing up!

Be on the lookout for a verification email in your inbox.

You'll start receiving the daily forecast at 8 AM.

×

10-Day Weather Forecast

Almanac

Astronomy

Jan. 22, 2017 Rise Set
Actual Time
Civil Twilight
Nautical Twilight
Astronomical Twilight
Moon
Length of Visible Light
Length of Day
Tomorrow will be .
, % of the Moon is Illuminated

Today's Extremes

State Highs State Lows

Community

WunderPhotos

Upload Photos

1,962,540 photos uploaded!

WunderBlog® & News

Nearby

Air Quality

  Air Quality AQ Index Pollutant
Not available.

Snow Depth

Station Depth Elevation

Earthquake Activity

City Distance Mag. Time & Date
Minimum magnitude displayed is 2.5.

Coastal Water Temperatures

Place Temperature

Stations

Nearby Weather Stations

Station Location Temp. Windchill Dew Point Humidity Wind Precip. Elev Updated Type
                   

Watches & Warnings

Small Craft Advisory, Gale Warning
Issued: 10:15 AM EST Jan. 22, 2017 – National Weather Service

... Small Craft Advisory now in effect from 6 PM this evening to
1 am EST Monday...
... Gale Warning in effect from 1 am to 1 PM EST Monday...

The National Weather Service in Baltimore MD/Washington has
issued a Gale Warning... which is in effect from 1 am to 1 PM EST
Monday.

* Winds... 18 to 33 knots within the Small Craft Advisory.

* Winds... 34 to 47 knots within the Gale Warning.

Precautionary/preparedness actions...

A Small Craft Advisory means winds of 18 to 33 knots are imminent
or occurring. Boaters operating smaller vessels should avoid
navigating in these conditions.

A Gale Warning means winds of 34 to 47 knots are imminent or
occurring. Operating a vessel in gale conditions requires
experience and a properly equipped vessel. Recreational boaters
should seek safe Harbor prior to the onset of gale conditions.